Terminal Aerodrome Forecast
Issued by NWS Hastings, NE

Home | Current Version | Previous Version | Text Only | Print | Product List | Glossary On
Versions: 1 2 3 4 5 6 7 8 9 10 11 12 13 14 15
000
FTUS43 KGID 211139
TAFGRI
TAF
KGRI 211139Z 2112/2212 19011KT P6SM FEW250 WS008/22040KT
     FM211400 20011KT P6SM FEW100 FEW250
     FM220000 17012KT P6SM FEW100
     FM220200 20007KT P6SM VCTS SCT100CB
     FM220600 VRB04KT P6SM SCT090=

USA.gov is the U.S. government's official web portal to all federal, state and local government web resources and services.